Time;durP1;ratioP1;P1;durP2;ratioP2;P2;SDS_P1;SDS_P2;PMS_P1;PMS_P2;Temp;Humidity;BMP_temperature;BMP_pressure;BME280_temperature;BME280_humidity;BME280_pressure;Samples;Min_cycle;Max_cycle;Signal;HPM_P1;HPM_P2
2023/09/20 00:01:58;;;;;;;;;;;;;;;;;;6334724;28;19970;-77
2023/09/20 00:05:00;;;;;;;;;;;;;;;;;;6356230;27;20020;-77
2023/09/20 00:08:03;;;;;;;;;;;;;;;;;;6352180;27;20357;-77
2023/09/20 00:11:05;;;;;;;;;;;;;;;;;;6364091;27;20301;-77
2023/09/20 00:14:06;;;;;;;;;;;;;;;;;;6351481;27;20366;-77
2023/09/20 00:17:06;;;;;;;;;;;;;;;;;;6359340;27;19942;-77
2023/09/20 00:20:11;;;;;;;;;;;;;;;;;;6357285;27;19995;-77
2023/09/20 00:23:17;;;;;;;;;;;;;;;;;;6365487;27;20243;-77
2023/09/20 00:26:20;;;;;;;;;;;;;;;;;;6361554;27;19915;-77
2023/09/20 00:29:24;;;;;;;;;;;;;;;;;;6360878;27;19987;-77
2023/09/20 00:32:24;;;;;;;;;;;;;;;;;;6370216;27;19912;-77
2023/09/20 00:35:24;;;;;;;;;;;;;;;;;;6341190;27;19919;-77
2023/09/20 00:38:25;;;;;;;;;;;;;;;;;;6362395;27;19908;-77
2023/09/20 00:41:26;;;;;;;;;;;;;;;;;;6359234;27;19912;-77
2023/09/20 00:44:26;;;;;;;;;;;;;;;;;;6359334;27;20014;-77
2023/09/20 00:47:27;;;;;;;;;;;;;;;;;;6357179;27;19914;-77
2023/09/20 00:50:27;;;;;;;;;;;;;;;;;;6360823;27;20282;-78
2023/09/20 00:53:28;;;;;;;;;;;;;;;;;;6359633;27;19916;-77
2023/09/20 00:56:29;;;;;;;;;;;;;;;;;;6361178;27;19919;-79
2023/09/20 00:59:32;;;;;;;;;;;;;;;;;;6355590;27;20354;-78
2023/09/20 01:02:32;;;;;;;;;;;;;;;;;;6362418;27;19939;-78
2023/09/20 01:05:36;;;;;;;;;;;;;;;;;;6358095;27;20339;-77
2023/09/20 01:08:37;;;;;;;;;;;;;;;;;;6342831;27;19916;-78
2023/09/20 01:11:37;;;;;;;;;;;;;;;;;;6343493;27;19929;-77
2023/09/20 01:14:37;;;;;;;;;;;;;;;;;;6361875;27;19994;-78
2023/09/20 01:17:38;;;;;;;;;;;;;;;;;;6358450;27;20015;-77
2023/09/20 01:20:40;;;;;;;;;;;;;;;;;;6361091;27;19920;-77
2023/09/20 01:23:42;;;;;;;;;;;;;;;;;;6354055;27;19922;-77
2023/09/20 01:26:48;;;;;;;;;;;;;;;;;;6352368;27;19911;-79
2023/09/20 01:29:48;;;;;;;;;;;;;;;;;;6351135;27;21862;-77
2023/09/20 01:32:51;;;;;;;;;;;;;;;;;;6356029;27;19955;-78
2023/09/20 01:35:52;;;;;;;;;;;;;;;;;;6356745;27;20421;-77
2023/09/20 01:38:52;;;;;;;;;;;;;;;;;;6350317;27;19912;-77
2023/09/20 01:41:52;;;;;;;;;;;;;;;;;;6355388;27;19937;-77
2023/09/20 01:44:54;;;;;;;;;;;;;;;;;;6338683;27;19918;-76
2023/09/20 01:47:54;;;;;;;;;;;;;;;;;;6356585;27;19963;-77
2023/09/20 01:50:54;;;;;;;;;;;;;;;;;;6355968;27;19925;-79
2023/09/20 01:53:55;;;;;;;;;;;;;;;;;;6350594;27;19912;-77
2023/09/20 01:56:55;;;;;;;;;;;;;;;;;;6359464;27;19908;-76
2023/09/20 01:59:57;;;;;;;;;;;;;;;;;;6350106;27;19912;-77
2023/09/20 02:02:57;;;;;;;;;;;;;;;;;;6353522;27;20433;-77
2023/09/20 02:05:58;;;;;;;;;;;;;;;;;;6357667;27;19927;-77
2023/09/20 02:08:59;;;;;;;;;;;;;;;;;;6352921;27;20088;-77
2023/09/20 02:11:59;;;;;;;;;;;;;;;;;;6351131;27;19937;-77
2023/09/20 02:14:59;;;;;;;;;;;;;;;;;;6360029;27;19911;-78
2023/09/20 02:18:00;;;;;;;;;;;;;;;;;;6351794;27;20369;-78
2023/09/20 02:21:00;;;;;;;;;;;;;;;;;;6358921;27;19912;-78
2023/09/20 02:24:00;;;;;;;;;;;;;;;;;;6353385;27;19952;-78
2023/09/20 02:27:01;;;;;;;;;;;;;;;;;;6358259;27;20377;-78
2023/09/20 02:30:01;;;;;;;;;;;;;;;;;;6349222;27;19986;-79
2023/09/20 02:33:05;;;;;;;;;;;;;;;;;;6351474;27;19912;-78
2023/09/20 02:36:05;;;;;;;;;;;;;;;;;;6348400;27;20389;-78
2023/09/20 02:39:06;;;;;;;;;;;;;;;;;;6349471;27;19912;-78
2023/09/20 02:42:06;;;;;;;;;;;;;;;;;;6356025;27;20376;-79
2023/09/20 02:45:07;;;;;;;;;;;;;;;;;;6350029;27;19980;-79
2023/09/20 02:48:07;;;;;;;;;;;;;;;;;;6336173;27;19922;-79
2023/09/20 02:51:07;;;;;;;;;;;;;;;;;;6354295;27;19927;-79
2023/09/20 02:54:09;;;;;;;;;;;;;;;;;;6352458;27;19915;-78
2023/09/20 02:57:10;;;;;;;;;;;;;;;;;;6355757;27;19911;-78
2023/09/20 03:00:17;;;;;;;;;;;;;;;;;;6352891;27;19918;-78
2023/09/20 03:03:18;;;;;;;;;;;;;;;;;;6353108;27;20014;-77
2023/09/20 03:06:18;;;;;;;;;;;;;;;;;;6350067;27;19972;-78
2023/09/20 03:09:18;;;;;;;;;;;;;;;;;;6352728;28;19973;-78
2023/09/20 03:12:18;;;;;;;;;;;;;;;;;;6358039;28;19938;-77
2023/09/20 03:15:21;;;;;;;;;;;;;;;;;;6354736;28;19919;-77
2023/09/20 03:18:22;;;;;;;;;;;;;;;;;;6353183;28;20379;-77
2023/09/20 03:21:23;;;;;;;;;;;;;;;;;;6356098;28;19912;-77
2023/09/20 03:24:23;;;;;;;;;;;;;;;;;;6348323;28;19916;-77
2023/09/20 03:27:23;;;;;;;;;;;;;;;;;;6350000;28;20001;-78
2023/09/20 03:30:27;;;;;;;;;;;;;;;;;;6350940;28;19929;-75
2023/09/20 03:33:31;;;;;;;;;;;;;;;;;;6348804;28;19945;-76
2023/09/20 03:36:32;;;;;;;;;;;;;;;;;;6350119;28;19916;-77
2023/09/20 03:39:35;;;;;;;;;;;;;;;;;;6368877;27;19923;-76
2023/09/20 03:42:35;;;;;;;;;;;;;;;;;;6367401;27;19965;-75
2023/09/20 03:45:35;;;;;;;;;;;;;;;;;;6353801;27;19916;-75
2023/09/20 03:48:35;;;;;;;;;;;;;;;;;;6354303;27;19932;-75
2023/09/20 03:51:36;;;;;;;;;;;;;;;;;;6374477;27;19924;-74
2023/09/20 03:54:36;;;;;;;;;;;;;;;;;;6376012;27;20000;-75
2023/09/20 03:57:40;;;;;;;;;;;;;;;;;;6367301;27;19956;-75
2023/09/20 04:00:42;;;;;;;;;;;;;;;;;;6365067;27;19957;-75
2023/09/20 04:03:42;;;;;;;;;;;;;;;;;;6369705;27;20005;-75
2023/09/20 04:06:44;;;;;;;;;;;;;;;;;;6377254;27;19919;-75
2023/09/20 04:09:44;;;;;;;;;;;;;;;;;;6378300;27;20018;-75
2023/09/20 04:12:48;;;;;;;;;;;;;;;;;;6361263;27;19920;-76
2023/09/20 04:15:48;;;;;;;;;;;;;;;;;;6348117;27;20076;-75
2023/09/20 04:18:50;;;;;;;;;;;;;;;;;;6373088;27;19922;-74
2023/09/20 04:21:50;;;;;;;;;;;;;;;;;;6356500;27;19916;-77
2023/09/20 04:24:50;;;;;;;;;;;;;;;;;;6361766;27;19938;-74
2023/09/20 04:27:50;;;;;;;;;;;;;;;;;;6365033;27;19915;-76
2023/09/20 04:30:51;;;;;;;;;;;;;;;;;;6349358;27;19927;-75
2023/09/20 04:33:52;;;;;;;;;;;;;;;;;;6358958;27;19912;-75
2023/09/20 04:36:53;;;;;;;;;;;;;;;;;;6002561;27;10000220;-74
2023/09/20 04:39:53;;;;;;;;;;;;;;;;;;6355466;27;19997;-75
2023/09/20 04:42:53;;;;;;;;;;;;;;;;;;6343166;27;19915;-74
2023/09/20 04:45:57;;;;;;;;;;;;;;;;;;6365567;27;19958;-75
2023/09/20 04:48:59;;;;;;;;;;;;;;;;;;6355381;27;20393;-75
2023/09/20 04:52:00;;;;;;;;;;;;;;;;;;6347819;27;19915;-76
2023/09/20 04:55:01;;;;;;;;;;;;;;;;;;6355391;27;19916;-75
2023/09/20 04:58:01;;;;;;;;;;;;;;;;;;6352901;27;19919;-75
2023/09/20 05:01:01;;;;;;;;;;;;;;;;;;6358921;27;19919;-75
2023/09/20 05:04:01;;;;;;;;;;;;;;;;;;6361268;27;19924;-76
2023/09/20 05:07:01;;;;;;;;;;;;;;;;;;6358800;27;19920;-76
2023/09/20 05:10:02;;;;;;;;;;;;;;;;;;6355058;27;20322;-75
2023/09/20 05:13:02;;;;;;;;;;;;;;;;;;6347000;27;19915;-77
2023/09/20 05:16:03;;;;;;;;;;;;;;;;;;6362977;27;20293;-76
2023/09/20 05:19:03;;;;;;;;;;;;;;;;;;6359227;27;20002;-76
2023/09/20 05:22:05;;;;;;;;;;;;;;;;;;6364214;27;19915;-76
2023/09/20 05:25:07;;;;;;;;;;;;;;;;;;6362879;27;20053;-75
2023/09/20 05:28:07;;;;;;;;;;;;;;;;;;6363392;27;19916;-76
2023/09/20 05:31:07;;;;;;;;;;;;;;;;;;6361331;27;20015;-76
2023/09/20 05:34:07;;;;;;;;;;;;;;;;;;6363758;27;19930;-76
2023/09/20 05:37:07;;;;;;;;;;;;;;;;;;6370824;27;19959;-75
2023/09/20 05:40:13;;;;;;;;;;;;;;;;;;6368738;27;20003;-74
2023/09/20 05:43:13;;;;;;;;;;;;;;;;;;6361468;27;19923;-74
2023/09/20 05:46:14;;;;;;;;;;;;;;;;;;6373046;27;19919;-75
2023/09/20 05:49:15;;;;;;;;;;;;;;;;;;6367534;27;19920;-74
2023/09/20 05:52:15;;;;;;;;;;;;;;;;;;6375304;27;19950;-76
2023/09/20 05:55:16;;;;;;;;;;;;;;;;;;6382801;27;19929;-76
2023/09/20 05:58:17;;;;;;;;;;;;;;;;;;6364624;27;19912;-76
2023/09/20 06:01:17;;;;;;;;;;;;;;;;;;6343603;28;19923;-75
2023/09/20 06:04:18;;;;;;;;;;;;;;;;;;6356729;27;20390;-75
2023/09/20 06:07:19;;;;;;;;;;;;;;;;;;6355896;27;19951;-75
2023/09/20 06:10:19;;;;;;;;;;;;;;;;;;6376654;27;19936;-76
2023/09/20 06:13:19;;;;;;;;;;;;;;;;;;6358550;27;19918;-75
2023/09/20 06:16:20;;;;;;;;;;;;;;;;;;6377293;27;19911;-75
2023/09/20 06:19:20;;;;;;;;;;;;;;;;;;6375324;27;19934;-75
2023/09/20 06:22:20;;;;;;;;;;;;;;;;;;6378741;27;20006;-76
2023/09/20 06:25:20;;;;;;;;;;;;;;;;;;6384048;27;20419;-76
2023/09/20 06:28:20;;;;;;;;;;;;;;;;;;6378584;27;19915;-76
2023/09/20 06:31:21;;;;;;;;;;;;;;;;;;6374252;27;19919;-76
2023/09/20 06:34:24;;;;;;;;;;;;;;;;;;6363143;27;19927;-77
2023/09/20 06:37:24;;;;;;;;;;;;;;;;;;6350092;28;20643;-77
2023/09/20 06:40:26;;;;;;;;;;;;;;;;;;6335477;27;20373;-76
2023/09/20 06:43:27;;;;;;;;;;;;;;;;;;6371291;27;19918;-76
2023/09/20 06:46:27;;;;;;;;;;;;;;;;;;6367624;27;20237;-76
2023/09/20 06:49:28;;;;;;;;;;;;;;;;;;6351678;27;20338;-75
2023/09/20 06:52:30;;;;;;;;;;;;;;;;;;6349935;28;19918;-76
2023/09/20 06:55:30;;;;;;;;;;;;;;;;;;6347149;28;20307;-76
2023/09/20 06:58:34;;;;;;;;;;;;;;;;;;6357254;27;19922;-77
2023/09/20 07:01:35;;;;;;;;;;;;;;;;;;6356525;27;19915;-77
2023/09/20 07:04:36;;;;;;;;;;;;;;;;;;6367899;27;19927;-77
2023/09/20 07:07:36;;;;;;;;;;;;;;;;;;6356099;27;20027;-78
2023/09/20 07:10:41;;;;;;;;;;;;;;;;;;6348485;28;19935;-78
2023/09/20 07:13:42;;;;;;;;;;;;;;;;;;6355145;27;19911;-77
2023/09/20 07:16:42;;;;;;;;;;;;;;;;;;6001498;27;9999936;-77
2023/09/20 07:19:47;;;;;;;;;;;;;;;;;;6366582;27;19915;-77
2023/09/20 07:22:47;;;;;;;;;;;;;;;;;;6353028;27;19911;-77
2023/09/20 07:25:50;;;;;;;;;;;;;;;;;;6380135;27;19923;-76
2023/09/20 07:28:50;;;;;;;;;;;;;;;;;;6365977;27;20071;-78
2023/09/20 07:31:50;;;;;;;;;;;;;;;;;;6371567;27;19915;-76
2023/09/20 07:34:57;;;;;;;;;;;;;;;;;;6370648;27;19919;-75
2023/09/20 07:37:57;;;;;;;;;;;;;;;;;;6373701;27;19944;-77
2023/09/20 07:40:58;;;;;;;;;;;;;;;;;;6374374;27;20071;-77
2023/09/20 07:43:58;;;;;;;;;;;;;;;;;;6376642;27;20006;-77
2023/09/20 07:46:58;;;;;;;;;;;;;;;;;;6369402;27;20393;-78
2023/09/20 07:49:59;;;;;;;;;;;;;;;;;;6363893;27;19923;-77
2023/09/20 07:53:00;;;;;;;;;;;;;;;;;;6362757;27;20428;-80
2023/09/20 07:56:00;;;;;;;;;;;;;;;;;;6366524;27;19912;-81
2023/09/20 07:59:03;;;;;;;;;;;;;;;;;;6377194;27;20285;-83
2023/09/20 08:02:04;;;;;;;;;;;;;;;;;;6379411;27;19911;-84
2023/09/20 08:05:04;;;;;;;;;;;;;;;;;;6360974;27;19926;-85
2023/09/20 08:08:05;;;;;;;;;;;;;;;;;;6378852;27;19911;-83
2023/09/20 08:11:05;;;;;;;;;;;;;;;;;;6382213;27;20361;-84
2023/09/20 08:14:07;;;;;;;;;;;;;;;;;;6379205;27;19998;-82
2023/09/20 08:20:27;;;;;;;;;;;;;;;;;;6360913;27;19947;-82
2023/09/20 08:59:56;;;;;;;;;;;;;;;;;;6354479;27;19911;-80
2023/09/20 09:02:57;;;;;;;;;;;;;;;;;;6353447;27;20359;-79
2023/09/20 09:06:00;;;;;;;;;;;;;;;;;;6324210;28;19920;-79
2023/09/20 09:09:04;;;;;;;;;;;;;;;;;;6347120;28;19920;-80
2023/09/20 09:12:05;;;;;;;;;;;;;;;;;;6328430;28;19984;-81
2023/09/20 09:15:05;;;;;;;;;;;;;;;;;;6325903;28;19950;-82
2023/09/20 09:18:05;;;;;;;;;;;;;;;;;;6345800;27;20300;-81
2023/09/20 09:21:06;;;;;;;;;;;;;;;;;;6344094;28;19912;-80
2023/09/20 09:24:06;;;;;;;;;;;;;;;;;;6346540;27;19912;-79
2023/09/20 09:27:06;;;;;;;;;;;;;;;;;;6344311;28;20385;-79
2023/09/20 09:30:06;;;;;;;;;;;;;;;;;;6345987;28;19923;-78
2023/09/20 09:33:09;;;;;;;;;;;;;;;;;;6317254;28;19912;-78
2023/09/20 09:36:10;;;;;;;;;;;;;;;;;;6341179;28;19924;-79
2023/09/20 09:39:14;;;;;;;;;;;;;;;;;;6347548;28;19955;-81
2023/09/20 09:42:14;;;;;;;;;;;;;;;;;;6348460;28;20380;-79
2023/09/20 09:45:14;;;;;;;;;;;;;;;;;;6347599;28;19911;-80
2023/09/20 09:48:14;;;;;;;;;;;;;;;;;;6345280;28;19920;-79
2023/09/20 09:51:15;;;;;;;;;;;;;;;;;;6329174;28;20368;-79
2023/09/20 09:54:16;;;;;;;;;;;;;;;;;;6348802;28;19933;-80
2023/09/20 09:57:18;;;;;;;;;;;;;;;;;;6349629;28;19908;-80
2023/09/20 10:00:20;;;;;;;;;;;;;;;;;;6329941;28;19922;-80
2023/09/20 10:03:20;;;;;;;;;;;;;;;;;;6329950;28;19915;-79
2023/09/20 10:06:21;;;;;;;;;;;;;;;;;;6341908;28;19922;-79
2023/09/20 10:09:21;;;;;;;;;;;;;;;;;;6342806;28;20378;-79
2023/09/20 10:12:21;;;;;;;;;;;;;;;;;;6341261;28;19916;-79
2023/09/20 10:15:22;;;;;;;;;;;;;;;;;;6339073;28;19911;-79
2023/09/20 10:18:24;;;;;;;;;;;;;;;;;;6343342;28;19918;-78
2023/09/20 10:21:25;;;;;;;;;;;;;;;;;;6339389;28;19915;-79
2023/09/20 10:24:26;;;;;;;;;;;;;;;;;;6344273;28;20373;-79
2023/09/20 10:27:27;;;;;;;;;;;;;;;;;;6334658;28;19987;-79
2023/09/20 10:30:28;;;;;;;;;;;;;;;;;;6342358;28;20074;-78
2023/09/20 10:33:28;;;;;;;;;;;;;;;;;;6336186;28;19987;-78
2023/09/20 10:36:28;;;;;;;;;;;;;;;;;;6336872;28;19974;-78
2023/09/20 10:39:29;;;;;;;;;;;;;;;;;;6330796;28;20016;-78
2023/09/20 10:42:31;;;;;;;;;;;;;;;;;;6327317;28;19924;-78
2023/09/20 10:45:31;;;;;;;;;;;;;;;;;;6325815;28;19956;-79
2023/09/20 10:48:31;;;;;;;;;;;;;;;;;;6327040;28;19930;-79
2023/09/20 10:51:31;;;;;;;;;;;;;;;;;;6326561;28;19913;-79
2023/09/20 10:54:36;;;;;;;;;;;;;;;;;;6345677;28;20381;-79
2023/09/20 10:57:36;;;;;;;;;;;;;;;;;;6323497;28;20041;-79
2023/09/20 11:00:36;;;;;;;;;;;;;;;;;;6325488;28;19920;-79
2023/09/20 11:03:38;;;;;;;;;;;;;;;;;;6333149;28;19912;-78
2023/09/20 11:06:38;;;;;;;;;;;;;;;;;;6334210;28;19926;-79
2023/09/20 11:09:38;;;;;;;;;;;;;;;;;;6343110;28;19959;-79
2023/09/20 11:12:40;;;;;;;;;;;;;;;;;;6342643;28;20407;-79
2023/09/20 11:15:47;;;;;;;;;;;;;;;;;;6344263;28;20282;-79
2023/09/20 11:18:48;;;;;;;;;;;;;;;;;;6341367;28;20446;-79
2023/09/20 11:21:48;;;;;;;;;;;;;;;;;;6318661;28;20393;-79
2023/09/20 11:24:51;;;;;;;;;;;;;;;;;;6319006;28;19912;-79
2023/09/20 11:27:51;;;;;;;;;;;;;;;;;;6322152;28;20657;-79
2023/09/20 11:30:51;;;;;;;;;;;;;;;;;;6332579;28;19919;-79
2023/09/20 11:33:52;;;;;;;;;;;;;;;;;;6327910;28;19916;-79
2023/09/20 11:36:53;;;;;;;;;;;;;;;;;;6319943;28;19920;-79
2023/09/20 11:39:54;;;;;;;;;;;;;;;;;;6337961;28;19915;-80
2023/09/20 11:42:54;;;;;;;;;;;;;;;;;;6342889;28;20296;-79
2023/09/20 11:45:55;;;;;;;;;;;;;;;;;;6332847;28;19912;-80
2023/09/20 11:48:55;;;;;;;;;;;;;;;;;;6306394;28;19961;-79
2023/09/20 11:51:59;;;;;;;;;;;;;;;;;;6333616;28;19912;-78
2023/09/20 11:55:03;;;;;;;;;;;;;;;;;;6333375;28;20258;-79
2023/09/20 11:58:04;;;;;;;;;;;;;;;;;;6343583;28;19908;-79
2023/09/20 12:01:05;;;;;;;;;;;;;;;;;;6326091;28;19911;-79
2023/09/20 12:04:06;;;;;;;;;;;;;;;;;;6342218;28;19916;-79
2023/09/20 12:07:07;;;;;;;;;;;;;;;;;;6310733;28;19916;-79
2023/09/20 12:10:07;;;;;;;;;;;;;;;;;;6302684;28;19998;-79
2023/09/20 12:13:07;;;;;;;;;;;;;;;;;;6306915;28;19922;-79
2023/09/20 12:16:08;;;;;;;;;;;;;;;;;;6310674;28;19915;-79
2023/09/20 12:19:08;;;;;;;;;;;;;;;;;;6315008;28;19938;-79
2023/09/20 12:22:09;;;;;;;;;;;;;;;;;;6317733;28;19950;-79
2023/09/20 12:25:11;;;;;;;;;;;;;;;;;;6319447;28;19927;-79
2023/09/20 12:28:11;;;;;;;;;;;;;;;;;;6317562;28;19912;-79
2023/09/20 12:31:13;;;;;;;;;;;;;;;;;;6323067;28;19918;-79
2023/09/20 12:34:13;;;;;;;;;;;;;;;;;;6320141;28;20399;-79
2023/09/20 12:37:13;;;;;;;;;;;;;;;;;;6319063;28;19917;-79
2023/09/20 12:40:13;;;;;;;;;;;;;;;;;;6313874;28;19951;-79
2023/09/20 12:43:15;;;;;;;;;;;;;;;;;;6306116;28;19930;-79
2023/09/20 12:46:17;;;;;;;;;;;;;;;;;;6302897;28;20011;-78
2023/09/20 12:49:17;;;;;;;;;;;;;;;;;;6308193;28;19966;-78
2023/09/20 12:52:17;;;;;;;;;;;;;;;;;;6313150;28;19912;-78
2023/09/20 12:55:18;;;;;;;;;;;;;;;;;;6320117;28;19912;-78
2023/09/20 12:58:19;;;;;;;;;;;;;;;;;;6311713;28;19991;-77
2023/09/20 13:01:19;;;;;;;;;;;;;;;;;;6319815;28;19985;-77
2023/09/20 13:04:19;;;;;;;;;;;;;;;;;;6323178;27;20031;-77
2023/09/20 13:07:19;;;;;;;;;;;;;;;;;;6352420;27;19976;-77
2023/09/20 13:10:22;;;;;;;;;;;;;;;;;;6350031;27;20453;-78
2023/09/20 13:13:23;;;;;;;;;;;;;;;;;;6351398;27;19916;-78
2023/09/20 13:16:25;;;;;;;;;;;;;;;;;;6367250;27;19922;-78
2023/09/20 13:19:25;;;;;;;;;;;;;;;;;;6359036;27;20353;-77
2023/09/20 13:22:25;;;;;;;;;;;;;;;;;;6372213;27;19908;-79
2023/09/20 13:25:31;;;;;;;;;;;;;;;;;;6358921;27;19973;-77
2023/09/20 13:28:31;;;;;;;;;;;;;;;;;;6362503;27;20060;-77
2023/09/20 13:31:35;;;;;;;;;;;;;;;;;;6349703;27;19915;-77
2023/09/20 13:34:35;;;;;;;;;;;;;;;;;;6369873;27;19930;-77
2023/09/20 13:37:35;;;;;;;;;;;;;;;;;;6348335;27;19942;-77
2023/09/20 13:40:38;;;;;;;;;;;;;;;;;;6367312;27;20017;-77
2023/09/20 13:43:38;;;;;;;;;;;;;;;;;;6368232;27;20373;-77
2023/09/20 13:46:38;;;;;;;;;;;;;;;;;;6357191;27;20007;-77
2023/09/20 13:49:39;;;;;;;;;;;;;;;;;;6359404;27;20334;-78
2023/09/20 13:52:42;;;;;;;;;;;;;;;;;;6371829;27;19923;-78
2023/09/20 13:55:43;;;;;;;;;;;;;;;;;;6361067;27;19923;-77
2023/09/20 13:58:43;;;;;;;;;;;;;;;;;;6362892;27;20357;-77
2023/09/20 14:01:43;;;;;;;;;;;;;;;;;;6364088;27;19951;-77
2023/09/20 14:04:44;;;;;;;;;;;;;;;;;;6367122;27;19920;-77
2023/09/20 14:07:45;;;;;;;;;;;;;;;;;;6366052;27;19941;-77
2023/09/20 14:10:46;;;;;;;;;;;;;;;;;;6374177;27;19907;-78
2023/09/20 14:13:48;;;;;;;;;;;;;;;;;;6374673;27;19911;-78
2023/09/20 14:16:49;;;;;;;;;;;;;;;;;;6373143;27;19919;-78
2023/09/20 14:19:51;;;;;;;;;;;;;;;;;;6371089;27;20437;-78
2023/09/20 14:22:54;;;;;;;;;;;;;;;;;;6373935;27;19967;-79
2023/09/20 14:25:54;;;;;;;;;;;;;;;;;;6377180;27;20400;-79
2023/09/20 14:28:55;;;;;;;;;;;;;;;;;;6373232;27;19971;-80
2023/09/20 14:31:55;;;;;;;;;;;;;;;;;;6372612;27;19972;-79
2023/09/20 14:34:55;;;;;;;;;;;;;;;;;;6375147;27;19911;-80
2023/09/20 14:37:56;;;;;;;;;;;;;;;;;;6369360;27;19915;-80
2023/09/20 14:40:56;;;;;;;;;;;;;;;;;;6376213;27;19915;-79
2023/09/20 14:43:56;;;;;;;;;;;;;;;;;;6376275;27;19924;-81
2023/09/20 14:47:00;;;;;;;;;;;;;;;;;;6376925;27;19978;-80
2023/09/20 14:50:01;;;;;;;;;;;;;;;;;;6393511;27;20365;-80
2023/09/20 14:53:01;;;;;;;;;;;;;;;;;;6356458;28;19900;-81
2023/09/20 14:56:02;;;;;;;;;;;;;;;;;;6368549;27;19907;-79
2023/09/20 14:59:02;;;;;;;;;;;;;;;;;;6398444;27;19915;-78
2023/09/20 15:02:05;;;;;;;;;;;;;;;;;;6397176;27;19911;-79
2023/09/20 15:05:06;;;;;;;;;;;;;;;;;;6394748;27;19945;-80
2023/09/20 15:08:08;;;;;;;;;;;;;;;;;;6381059;27;19976;-79
2023/09/20 15:11:08;;;;;;;;;;;;;;;;;;6374813;27;19911;-79
2023/09/20 15:14:10;;;;;;;;;;;;;;;;;;6385923;28;20064;-78
2023/09/20 15:17:12;;;;;;;;;;;;;;;;;;6370101;28;19918;-80
2023/09/20 15:20:16;;;;;;;;;;;;;;;;;;6375066;28;19947;-80
2023/09/20 15:23:19;;;;;;;;;;;;;;;;;;6373091;28;19961;-80
2023/09/20 15:26:21;;;;;;;;;;;;;;;;;;6365372;28;19928;-80
2023/09/20 15:29:21;;;;;;;;;;;;;;;;;;6348661;28;19920;-82
2023/09/20 15:32:22;;;;;;;;;;;;;;;;;;6360242;28;19911;-80
2023/09/20 15:35:22;;;;;;;;;;;;;;;;;;6376488;27;20289;-80
2023/09/20 15:38:22;;;;;;;;;;;;;;;;;;6366224;27;19912;-81
2023/09/20 15:41:25;;;;;;;;;;;;;;;;;;6374393;27;20365;-80
2023/09/20 15:44:25;;;;;;;;;;;;;;;;;;6378354;27;20421;-80
2023/09/20 15:47:25;;;;;;;;;;;;;;;;;;6379041;27;19907;-80
2023/09/20 15:50:26;;;;;;;;;;;;;;;;;;6359374;27;19933;-80
2023/09/20 15:53:27;;;;;;;;;;;;;;;;;;6354790;27;19908;-79
2023/09/20 15:56:27;;;;;;;;;;;;;;;;;;6352261;27;19915;-82
2023/09/20 15:59:28;;;;;;;;;;;;;;;;;;6365319;27;19997;-81
2023/09/20 16:02:29;;;;;;;;;;;;;;;;;;6358173;27;20400;-82
2023/09/20 16:05:30;;;;;;;;;;;;;;;;;;6021853;27;9999782;-82
2023/09/20 16:08:30;;;;;;;;;;;;;;;;;;6362044;27;20010;-80
2023/09/20 16:11:30;;;;;;;;;;;;;;;;;;6372373;27;20317;-81
2023/09/20 16:14:34;;;;;;;;;;;;;;;;;;6366950;27;19911;-83
2023/09/20 16:17:35;;;;;;;;;;;;;;;;;;6362229;27;19930;-82
2023/09/20 16:20:35;;;;;;;;;;;;;;;;;;6357184;27;19923;-90
2023/09/20 16:23:36;;;;;;;;;;;;;;;;;;6378669;27;20272;-90
2023/09/20 16:26:37;;;;;;;;;;;;;;;;;;6354191;27;20018;-91
2023/09/20 16:29:37;;;;;;;;;;;;;;;;;;6373911;27;19915;-90
2023/09/20 16:32:38;;;;;;;;;;;;;;;;;;6372294;27;19926;-91
2023/09/20 16:35:38;;;;;;;;;;;;;;;;;;6382031;27;19931;-89
2023/09/20 16:38:38;;;;;;;;;;;;;;;;;;6376228;27;19986;-92
2023/09/20 16:41:40;;;;;;;;;;;;;;;;;;6376454;27;19915;-90
2023/09/20 16:44:41;;;;;;;;;;;;;;;;;;6371849;27;19957;-90
2023/09/20 16:47:41;;;;;;;;;;;;;;;;;;6357515;27;19979;-88
2023/09/20 16:50:42;;;;;;;;;;;;;;;;;;6364599;27;19912;-89
2023/09/20 16:53:43;;;;;;;;;;;;;;;;;;6358117;27;19934;-87
2023/09/20 16:56:44;;;;;;;;;;;;;;;;;;6349018;27;20404;-88
2023/09/20 16:59:44;;;;;;;;;;;;;;;;;;6359894;27;20432;-89
2023/09/20 17:02:46;;;;;;;;;;;;;;;;;;6361859;27;20433;-89
2023/09/20 17:05:46;;;;;;;;;;;;;;;;;;6365530;27;19919;-89
2023/09/20 17:08:46;;;;;;;;;;;;;;;;;;6350333;27;19919;-87
2023/09/20 17:11:46;;;;;;;;;;;;;;;;;;6376621;27;19947;-89
2023/09/20 17:14:46;;;;;;;;;;;;;;;;;;6368357;27;19916;-88
2023/09/20 17:17:48;;;;;;;;;;;;;;;;;;6356851;27;20216;-87
2023/09/20 17:20:48;;;;;;;;;;;;;;;;;;6359886;27;19959;-86
2023/09/20 17:23:48;;;;;;;;;;;;;;;;;;6373848;27;20071;-85
2023/09/20 17:26:50;;;;;;;;;;;;;;;;;;6378979;27;20453;-87
2023/09/20 17:29:50;;;;;;;;;;;;;;;;;;6375034;27;19970;-87
2023/09/20 17:32:50;;;;;;;;;;;;;;;;;;6357478;27;19916;-88
2023/09/20 17:35:51;;;;;;;;;;;;;;;;;;6356666;27;19968;-87
2023/09/20 17:38:52;;;;;;;;;;;;;;;;;;6382779;27;19971;-85
2023/09/20 17:41:52;;;;;;;;;;;;;;;;;;6381957;27;19912;-86
2023/09/20 17:44:53;;;;;;;;;;;;;;;;;;6371223;27;19936;-86
2023/09/20 17:47:54;;;;;;;;;;;;;;;;;;6368246;27;20350;-86
2023/09/20 17:50:54;;;;;;;;;;;;;;;;;;6371544;27;19980;-87
2023/09/20 17:53:54;;;;;;;;;;;;;;;;;;6376912;27;20351;-88
2023/09/20 17:56:57;;;;;;;;;;;;;;;;;;6363409;27;20549;-85
2023/09/20 17:59:57;;;;;;;;;;;;;;;;;;6367390;27;19923;-87
2023/09/20 18:02:57;;;;;;;;;;;;;;;;;;6375997;27;19934;-88
2023/09/20 18:05:58;;;;;;;;;;;;;;;;;;6374166;27;20014;-87
2023/09/20 18:08:59;;;;;;;;;;;;;;;;;;6366790;27;19916;-86
2023/09/20 18:11:59;;;;;;;;;;;;;;;;;;6355361;27;19915;-86
2023/09/20 18:14:59;;;;;;;;;;;;;;;;;;6363706;27;19915;-86
2023/09/20 18:17:59;;;;;;;;;;;;;;;;;;6361706;27;19911;-86
2023/09/20 18:21:00;;;;;;;;;;;;;;;;;;6348182;27;19927;-86
2023/09/20 18:24:01;;;;;;;;;;;;;;;;;;6368443;27;19960;-85
2023/09/20 18:27:01;;;;;;;;;;;;;;;;;;6362546;27;19946;-86
2023/09/20 18:30:01;;;;;;;;;;;;;;;;;;6364259;27;19915;-86
2023/09/20 18:33:02;;;;;;;;;;;;;;;;;;6363886;27;20038;-87
2023/09/20 18:36:02;;;;;;;;;;;;;;;;;;6356630;27;19969;-86
2023/09/20 18:39:02;;;;;;;;;;;;;;;;;;6357176;27;19959;-88
2023/09/20 18:42:03;;;;;;;;;;;;;;;;;;6351474;27;19960;-86
2023/09/20 18:45:04;;;;;;;;;;;;;;;;;;6355442;27;19958;-86
2023/09/20 18:48:05;;;;;;;;;;;;;;;;;;6356544;27;19916;-86
2023/09/20 18:51:06;;;;;;;;;;;;;;;;;;6352621;27;19916;-88
2023/09/20 18:54:07;;;;;;;;;;;;;;;;;;6356472;27;19921;-86
2023/09/20 18:57:07;;;;;;;;;;;;;;;;;;6359842;27;19916;-85
2023/09/20 19:00:16;;;;;;;;;;;;;;;;;;6360421;27;20478;-84
2023/09/20 19:03:16;;;;;;;;;;;;;;;;;;6364510;27;20366;-84
2023/09/20 19:06:20;;;;;;;;;;;;;;;;;;6371619;27;19962;-84
2023/09/20 19:09:20;;;;;;;;;;;;;;;;;;6374735;27;19923;-84
2023/09/20 19:12:21;;;;;;;;;;;;;;;;;;6349012;28;21283;-80
2023/09/20 19:15:21;;;;;;;;;;;;;;;;;;6358202;28;19916;-80
2023/09/20 19:18:26;;;;;;;;;;;;;;;;;;6365081;28;20352;-81
2023/09/20 19:21:29;;;;;;;;;;;;;;;;;;6352777;28;20299;-80
2023/09/20 19:24:33;;;;;;;;;;;;;;;;;;6352463;28;19947;-79
2023/09/20 19:27:33;;;;;;;;;;;;;;;;;;6341685;28;20376;-81
2023/09/20 19:30:34;;;;;;;;;;;;;;;;;;6332490;28;19977;-79
2023/09/20 19:33:34;;;;;;;;;;;;;;;;;;6353854;28;19995;-79
2023/09/20 19:36:34;;;;;;;;;;;;;;;;;;6352826;28;19980;-80
2023/09/20 19:39:34;;;;;;;;;;;;;;;;;;6354367;28;19920;-80
2023/09/20 19:42:38;;;;;;;;;;;;;;;;;;6356217;28;19970;-81
2023/09/20 19:45:38;;;;;;;;;;;;;;;;;;6359273;28;19983;-80
2023/09/20 19:48:39;;;;;;;;;;;;;;;;;;6335948;28;19919;-81
2023/09/20 19:51:39;;;;;;;;;;;;;;;;;;6344271;28;19916;-80
2023/09/20 19:54:39;;;;;;;;;;;;;;;;;;6354200;28;19915;-82
2023/09/20 19:57:41;;;;;;;;;;;;;;;;;;6354451;28;20428;-83
2023/09/20 20:00:42;;;;;;;;;;;;;;;;;;6358964;28;19926;-83
2023/09/20 20:03:43;;;;;;;;;;;;;;;;;;6362244;27;19915;-83
2023/09/20 20:06:43;;;;;;;;;;;;;;;;;;6359045;28;19922;-83
2023/09/20 20:09:44;;;;;;;;;;;;;;;;;;6364291;28;19915;-83
2023/09/20 20:12:47;;;;;;;;;;;;;;;;;;6347428;28;20294;-83
2023/09/20 20:15:47;;;;;;;;;;;;;;;;;;6360029;28;19915;-83
2023/09/20 20:18:48;;;;;;;;;;;;;;;;;;6366328;28;19950;-84
2023/09/20 20:21:49;;;;;;;;;;;;;;;;;;6362757;27;19922;-83
2023/09/20 20:24:49;;;;;;;;;;;;;;;;;;6370451;27;19915;-84
2023/09/20 20:27:49;;;;;;;;;;;;;;;;;;6387441;27;19926;-83
2023/09/20 20:30:51;;;;;;;;;;;;;;;;;;6390050;27;19924;-83
2023/09/20 20:33:51;;;;;;;;;;;;;;;;;;6391263;27;19903;-83
2023/09/20 20:36:51;;;;;;;;;;;;;;;;;;6387115;27;19920;-83
2023/09/20 20:39:51;;;;;;;;;;;;;;;;;;6386145;27;19934;-82
2023/09/20 20:42:51;;;;;;;;;;;;;;;;;;6340064;27;19919;-81
2023/09/20 20:45:51;;;;;;;;;;;;;;;;;;6366862;27;19995;-83
2023/09/20 20:48:52;;;;;;;;;;;;;;;;;;6359205;27;20440;-83
2023/09/20 20:51:52;;;;;;;;;;;;;;;;;;6361444;27;20373;-82
2023/09/20 20:54:53;;;;;;;;;;;;;;;;;;6361543;27;19956;-81
2023/09/20 20:57:53;;;;;;;;;;;;;;;;;;6364006;27;19921;-81
2023/09/20 21:00:56;;;;;;;;;;;;;;;;;;6358554;27;19928;-81
2023/09/20 21:03:57;;;;;;;;;;;;;;;;;;6350431;27;19923;-81
2023/09/20 21:06:57;;;;;;;;;;;;;;;;;;6388813;27;19983;-82
2023/09/20 21:09:57;;;;;;;;;;;;;;;;;;6363993;27;19926;-82
2023/09/20 21:13:01;;;;;;;;;;;;;;;;;;6361264;27;20035;-81
2023/09/20 21:16:03;;;;;;;;;;;;;;;;;;6362380;27;19923;-82